Time;durP1;ratioP1;P1;durP2;ratioP2;P2;SDS_P1;SDS_P2;PMS_P1;PMS_P2;Temp;Humidity;BMP_temperature;BMP_pressure;BME280_temperature;BME280_humidity;BME280_pressure;Samples;Min_cycle;Max_cycle;Signal;HPM_P1;HPM_P2
2021/09/04 00:00:00;;;;;;;0.50;0.40;;;15.40;99.90;;;;;;5000890;28;20463;-82
2021/09/04 00:02:27;;;;;;;0.67;0.67;;;15.40;99.90;;;;;;5000471;28;20479;-82
2021/09/04 00:04:54;;;;;;;0.50;0.37;;;15.30;99.90;;;;;;5001008;28;20535;-81
2021/09/04 00:07:21;;;;;;;0.50;0.33;;;15.30;99.90;;;;;;5001656;28;20458;-81
2021/09/04 00:09:47;;;;;;;0.50;0.40;;;15.20;99.90;;;;;;5000338;28;20456;-81
2021/09/04 00:12:14;;;;;;;0.50;0.40;;;15.20;99.90;;;;;;5000239;28;20458;-82
2021/09/04 00:14:42;;;;;;;0.70;0.70;;;15.20;99.90;;;;;;5000704;28;20447;-81
2021/09/04 00:17:09;;;;;;;0.50;0.30;;;15.20;99.90;;;;;;5001156;28;20440;-82
2021/09/04 00:19:37;;;;;;;5.93;0.77;;;15.20;99.90;;;;;;5000791;28;20467;-81
2021/09/04 00:22:05;;;;;;;0.50;0.40;;;15.20;99.90;;;;;;5000275;28;20442;-82
2021/09/04 00:24:32;;;;;;;0.50;0.40;;;15.20;99.90;;;;;;5000655;28;20437;-81
2021/09/04 00:26:58;;;;;;;0.50;0.40;;;15.20;99.90;;;;;;5000846;28;20798;-81
2021/09/04 00:29:26;;;;;;;0.50;0.40;;;15.20;99.90;;;;;;5000448;28;20446;-82
2021/09/04 00:31:54;;;;;;;0.50;0.40;;;15.10;99.90;;;;;;4999795;28;20479;-81
2021/09/04 00:34:21;;;;;;;0.50;0.40;;;15.10;99.90;;;;;;5000888;28;20518;-82
2021/09/04 00:36:48;;;;;;;0.50;0.30;;;15.10;99.90;;;;;;5000314;28;20443;-81
2021/09/04 00:39:14;;;;;;;3.90;2.00;;;15.00;99.90;;;;;;4999961;28;20445;-81
2021/09/04 00:41:41;;;;;;;0.50;0.40;;;15.00;99.90;;;;;;5000030;28;20439;-81
2021/09/04 00:44:15;;;;;;;0.50;0.30;;;15.00;99.90;;;;;;5001112;28;20499;-81
2021/09/04 00:46:42;;;;;;;0.50;0.40;;;14.90;99.90;;;;;;5000585;28;20662;-81
2021/09/04 00:49:10;;;;;;;0.50;0.40;;;14.90;99.90;;;;;;4999854;28;20562;-79
2021/09/04 00:51:37;;;;;;;2.35;2.25;;;14.90;99.90;;;;;;5000407;28;20813;-81
2021/09/04 00:54:05;;;;;;;0.50;0.30;;;14.90;99.90;;;;;;4999747;28;20197;-81
2021/09/04 00:56:32;;;;;;;1.15;1.05;;;14.80;99.90;;;;;;4999866;28;20444;-81
2021/09/04 00:59:05;;;;;;;0.50;0.40;;;14.80;99.90;;;;;;5000749;28;20201;-81
2021/09/04 01:01:31;;;;;;;2.25;2.15;;;14.80;99.90;;;;;;4999707;28;20466;-81
2021/09/04 01:03:58;;;;;;;0.50;0.40;;;14.80;99.90;;;;;;4999687;28;20227;-81
2021/09/04 01:06:27;;;;;;;0.95;0.77;;;14.80;99.90;;;;;;5000252;28;20449;-82
2021/09/04 01:08:54;;;;;;;0.50;0.30;;;14.70;99.90;;;;;;5000065;28;20204;-81
2021/09/04 01:11:21;;;;;;;0.50;0.30;;;14.70;99.90;;;;;;4999754;28;20842;-81
2021/09/04 01:13:48;;;;;;;0.50;0.40;;;14.70;99.90;;;;;;4999526;28;20196;-81
2021/09/04 01:16:15;;;;;;;0.50;0.40;;;14.70;99.90;;;;;;4999666;28;20457;-81
2021/09/04 01:18:42;;;;;;;0.97;0.97;;;14.60;99.90;;;;;;4999723;28;20204;-81
2021/09/04 01:21:10;;;;;;;0.50;0.30;;;14.60;99.90;;;;;;4998783;28;20462;-81
2021/09/04 01:23:39;;;;;;;1.80;1.03;;;14.50;99.90;;;;;;4999766;28;20220;-81
2021/09/04 01:26:08;;;;;;;0.90;0.90;;;14.50;99.90;;;;;;5000109;28;20449;-82
2021/09/04 01:28:35;;;;;;;0.50;0.40;;;14.40;99.90;;;;;;4999970;28;20436;-81
2021/09/04 01:31:03;;;;;;;0.50;0.40;;;14.40;99.90;;;;;;4999359;28;20226;-81
2021/09/04 01:33:30;;;;;;;0.50;0.40;;;14.40;99.90;;;;;;4999256;28;20200;-81
2021/09/04 01:35:57;;;;;;;0.60;0.40;;;14.40;99.90;;;;;;4999989;28;20444;-82
2021/09/04 01:38:24;;;;;;;0.50;0.40;;;14.40;99.90;;;;;;5000245;28;20451;-81
2021/09/04 01:40:51;;;;;;;2.35;1.60;;;14.30;99.90;;;;;;4998366;28;20223;-82
2021/09/04 01:43:19;;;;;;;0.50;0.30;;;14.30;99.90;;;;;;4998876;28;20215;-81
2021/09/04 01:45:45;;;;;;;0.50;0.40;;;14.30;99.90;;;;;;4999345;28;20668;-81
2021/09/04 01:48:12;;;;;;;2.90;1.15;;;14.30;99.90;;;;;;4999140;28;20197;-81
2021/09/04 01:50:39;;;;;;;0.60;0.60;;;14.30;99.90;;;;;;4999069;28;20231;-81
2021/09/04 01:53:06;;;;;;;0.50;0.40;;;14.30;99.90;;;;;;4999044;28;20196;-81
2021/09/04 01:55:33;;;;;;;0.50;0.40;;;14.30;99.90;;;;;;4999472;28;20701;-81
2021/09/04 01:58:00;;;;;;;0.50;0.50;;;14.30;99.90;;;;;;5002046;28;20211;-81
2021/09/04 02:00:28;;;;;;;0.50;0.33;;;14.20;99.90;;;;;;4999350;28;20466;-82
2021/09/04 02:02:55;;;;;;;2.03;1.85;;;14.20;99.90;;;;;;4998655;28;20448;-79
2021/09/04 02:05:21;;;;;;;0.50;0.40;;;14.20;99.90;;;;;;4998486;28;20201;-81
2021/09/04 02:07:48;;;;;;;0.80;0.80;;;14.20;99.90;;;;;;4998262;28;20450;-81
2021/09/04 02:10:15;;;;;;;0.50;0.40;;;14.20;99.90;;;;;;4997313;28;20224;-79
2021/09/04 02:12:42;;;;;;;0.50;0.40;;;14.10;99.90;;;;;;4997124;28;20226;-81
2021/09/04 02:15:10;;;;;;;0.50;0.40;;;14.10;99.90;;;;;;4997177;28;20193;-81
2021/09/04 02:17:38;;;;;;;0.50;0.40;;;14.00;99.90;;;;;;4997206;28;20196;-81
2021/09/04 02:20:06;;;;;;;0.52;0.40;;;14.00;99.90;;;;;;4996431;28;20463;-81
2021/09/04 02:22:33;;;;;;;1.60;1.50;;;14.00;99.90;;;;;;4997155;28;20204;-81
2021/09/04 02:25:02;;;;;;;0.50;0.40;;;14.00;99.90;;;;;;4997174;28;20225;-81
2021/09/04 02:27:28;;;;;;;1.10;1.10;;;14.00;99.90;;;;;;4997310;28;20262;-81
2021/09/04 02:29:55;;;;;;;0.50;0.40;;;13.90;99.90;;;;;;4996334;28;20468;-81
2021/09/04 02:32:22;;;;;;;0.50;0.40;;;14.00;99.90;;;;;;4996080;28;20204;-81
2021/09/04 02:34:50;;;;;;;0.50;0.40;;;13.90;99.90;;;;;;4996739;28;20196;-81
2021/09/04 02:37:17;;;;;;;0.50;0.40;;;13.80;99.90;;;;;;4996870;28;20195;-80
2021/09/04 02:39:44;;;;;;;0.50;0.40;;;13.90;99.90;;;;;;4996001;28;20575;-80
2021/09/04 02:42:11;;;;;;;0.50;0.40;;;13.80;99.90;;;;;;4996216;28;20255;-80
2021/09/04 02:44:38;;;;;;;0.50;0.40;;;13.90;99.90;;;;;;4997202;28;20690;-81
2021/09/04 02:47:05;;;;;;;0.50;0.40;;;13.80;99.90;;;;;;4996394;28;20203;-81
2021/09/04 02:49:32;;;;;;;0.50;0.35;;;13.80;99.90;;;;;;4996638;28;20221;-80
2021/09/04 02:52:09;;;;;;;0.50;0.40;;;13.80;99.90;;;;;;4996124;28;20563;-80
2021/09/04 02:54:36;;;;;;;0.50;0.40;;;13.80;99.90;;;;;;4996454;28;20210;-81
2021/09/04 02:57:03;;;;;;;0.50;0.40;;;13.70;99.90;;;;;;4996227;28;20202;-81
2021/09/04 02:59:30;;;;;;;3.25;3.05;;;13.70;99.90;;;;;;4995733;28;20713;-81
2021/09/04 03:01:57;;;;;;;0.50;0.40;;;13.70;99.90;;;;;;4995974;28;20201;-81
2021/09/04 03:04:23;;;;;;;0.50;0.40;;;13.80;99.90;;;;;;4997377;28;20224;-80
2021/09/04 03:06:50;;;;;;;2.45;2.30;;;13.80;99.90;;;;;;4997047;28;20566;-82
2021/09/04 03:09:18;;;;;;;0.50;0.40;;;13.90;99.90;;;;;;4997036;28;20208;-81
2021/09/04 03:11:45;;;;;;;0.70;0.70;;;14.00;99.90;;;;;;4996747;28;20212;-81
2021/09/04 03:14:12;;;;;;;1.25;1.08;;;14.00;99.90;;;;;;4996422;28;20199;-81
2021/09/04 03:16:39;;;;;;;4.20;1.73;;;14.00;99.90;;;;;;4996943;28;20620;-81
2021/09/04 03:19:05;;;;;;;1.45;0.80;;;14.00;99.90;;;;;;4997178;28;20197;-80
2021/09/04 03:21:32;;;;;;;2.92;2.72;;;14.00;99.90;;;;;;4996432;28;20217;-81
2021/09/04 03:23:59;;;;;;;0.50;0.40;;;14.10;99.90;;;;;;4995418;28;20220;-81
2021/09/04 03:26:27;;;;;;;0.50;0.40;;;14.00;99.90;;;;;;4996842;28;20547;-80
2021/09/04 03:28:54;;;;;;;6.20;2.30;;;14.10;99.90;;;;;;4996541;28;20214;-81
2021/09/04 03:31:21;;;;;;;1.60;1.50;;;14.10;99.90;;;;;;4996783;28;20223;-81
2021/09/04 03:33:47;;;;;;;0.63;0.63;;;14.10;99.90;;;;;;4996139;28;20204;-81
2021/09/04 03:36:14;;;;;;;5.75;3.10;;;14.10;99.90;;;;;;4996589;28;20294;-81
2021/09/04 03:38:41;;;;;;;0.50;0.40;;;14.10;99.90;;;;;;4996481;28;20211;-81
2021/09/04 03:41:08;;;;;;;0.60;0.40;;;14.00;99.90;;;;;;4995931;28;20225;-81
2021/09/04 03:43:36;;;;;;;1.13;0.75;;;14.20;99.90;;;;;;4996062;28;20467;-81
2021/09/04 03:46:03;;;;;;;0.50;0.40;;;14.20;99.90;;;;;;4995721;28;20197;-80
2021/09/04 03:48:30;;;;;;;1.40;1.40;;;14.20;99.90;;;;;;4996402;28;20196;-81
2021/09/04 03:50:57;;;;;;;0.50;0.50;;;14.20;99.90;;;;;;4995933;28;20221;-80
2021/09/04 03:53:23;;;;;;;1.67;1.58;;;14.20;99.90;;;;;;4996406;28;20441;-80
2021/09/04 03:55:50;;;;;;;1.77;1.67;;;14.30;99.90;;;;;;4996090;28;20210;-81
2021/09/04 03:58:17;;;;;;;0.55;0.50;;;14.30;99.90;;;;;;4996409;28;20565;-81
2021/09/04 04:00:45;;;;;;;0.60;0.60;;;14.30;99.90;;;;;;4995957;28;20732;-80
2021/09/04 04:03:12;;;;;;;4.83;4.50;;;14.20;99.90;;;;;;4997089;28;20444;-82
2021/09/04 04:05:39;;;;;;;1.13;1.05;;;14.20;99.90;;;;;;4996152;28;20486;-80
2021/09/04 04:08:06;;;;;;;3.75;2.05;;;14.10;99.90;;;;;;4995908;28;20676;-82
2021/09/04 04:10:33;;;;;;;5.80;2.05;;;14.10;99.90;;;;;;4996577;28;20219;-81
2021/09/04 04:13:00;;;;;;;1.55;1.45;;;14.10;99.90;;;;;;4997079;28;20227;-81
2021/09/04 04:15:27;;;;;;;0.50;0.40;;;14.00;99.90;;;;;;4992947;28;20200;-82
2021/09/04 04:17:55;;;;;;;0.50;0.40;;;14.00;99.90;;;;;;4977030;28;20205;-81
2021/09/04 04:20:22;;;;;;;1.23;1.23;;;14.00;99.90;;;;;;4995023;28;20234;-81
2021/09/04 04:22:48;;;;;;;0.50;0.40;;;13.90;99.90;;;;;;4995020;28;20205;-81
2021/09/04 04:25:15;;;;;;;1.23;1.13;;;13.90;99.90;;;;;;4995340;28;20297;-81
2021/09/04 04:27:42;;;;;;;0.80;0.43;;;13.80;99.90;;;;;;4995483;28;20439;-81
2021/09/04 04:30:10;;;;;;;1.02;0.95;;;13.80;99.90;;;;;;4995330;28;20468;-81
2021/09/04 04:32:37;;;;;;;8.23;2.40;;;13.80;99.90;;;;;;4994641;28;20197;-79
2021/09/04 04:35:05;;;;;;;1.88;0.70;;;13.80;99.90;;;;;;4977990;28;20190;-80
2021/09/04 04:37:32;;;;;;;0.50;0.40;;;13.70;99.90;;;;;;4979100;28;20194;-81
2021/09/04 04:39:59;;;;;;;3.63;0.73;;;13.80;99.90;;;;;;4979047;28;20468;-80
2021/09/04 04:42:26;;;;;;;0.50;0.40;;;13.80;99.90;;;;;;4979073;28;20207;-80
2021/09/04 04:44:52;;;;;;;0.60;0.40;;;13.70;99.90;;;;;;4978816;28;20473;-80
2021/09/04 04:47:19;;;;;;;2.53;2.20;;;13.70;99.90;;;;;;4978998;28;20202;-80
2021/09/04 04:49:46;;;;;;;0.50;0.40;;;13.80;99.90;;;;;;4979404;28;20467;-80
2021/09/04 04:52:14;;;;;;;0.93;0.83;;;13.80;99.90;;;;;;4979660;28;20464;-81
2021/09/04 04:54:41;;;;;;;0.50;0.38;;;13.90;99.90;;;;;;4980304;28;20454;-80
2021/09/04 04:57:08;;;;;;;2.77;2.57;;;13.90;99.90;;;;;;4979845;28;20284;-80
2021/09/04 04:59:35;;;;;;;0.50;0.40;;;14.00;99.90;;;;;;4979500;28;20469;-81
2021/09/04 05:02:02;;;;;;;0.50;0.40;;;14.00;99.90;;;;;;4978893;28;20960;-80
2021/09/04 05:04:29;;;;;;;0.50;0.43;;;14.00;99.90;;;;;;4978259;28;20578;-80
2021/09/04 05:06:55;;;;;;;1.43;0.97;;;14.00;99.90;;;;;;4978754;28;20591;-80
2021/09/04 05:09:23;;;;;;;0.80;0.60;;;14.00;99.90;;;;;;4978738;28;20440;-79
2021/09/04 05:11:50;;;;;;;0.50;0.40;;;14.00;99.90;;;;;;4996050;28;20452;-80
2021/09/04 05:14:17;;;;;;;1.67;0.67;;;14.00;99.90;;;;;;4998057;28;20200;-79
2021/09/04 05:16:44;;;;;;;0.60;0.50;;;14.00;99.90;;;;;;4997714;28;20454;-80
2021/09/04 05:19:11;;;;;;;0.50;0.40;;;14.10;99.90;;;;;;4997792;28;20193;-80
2021/09/04 05:21:37;;;;;;;0.50;0.30;;;14.10;99.90;;;;;;4997183;28;20442;-80
2021/09/04 05:24:05;;;;;;;1.20;1.13;;;14.10;99.90;;;;;;4997854;28;20590;-80
2021/09/04 05:26:33;;;;;;;0.50;0.40;;;14.10;99.90;;;;;;4998183;28;20208;-80
2021/09/04 05:29:00;;;;;;;2.30;2.20;;;14.10;99.90;;;;;;4997725;28;20246;-80
2021/09/04 05:31:27;;;;;;;0.50;0.40;;;14.10;99.90;;;;;;4996973;28;20471;-80
2021/09/04 05:33:53;;;;;;;0.70;0.70;;;14.00;99.90;;;;;;4998439;28;20204;-80
2021/09/04 05:36:20;;;;;;;4.00;3.80;;;14.10;99.90;;;;;;4999875;28;20194;-80
2021/09/04 05:38:47;;;;;;;0.50;0.40;;;14.00;99.90;;;;;;4999581;28;20201;-80
2021/09/04 05:41:14;;;;;;;0.90;0.90;;;14.00;99.90;;;;;;4998195;28;20463;-79
2021/09/04 05:43:42;;;;;;;0.50;0.40;;;14.00;99.90;;;;;;4999240;28;20211;-80
2021/09/04 05:46:09;;;;;;;1.85;1.75;;;14.00;99.90;;;;;;5000327;28;20232;-81
2021/09/04 05:48:35;;;;;;;0.50;0.40;;;14.00;99.90;;;;;;4998446;28;20703;-80
2021/09/04 05:51:02;;;;;;;0.50;0.40;;;14.10;99.90;;;;;;4999246;28;20230;-81
2021/09/04 05:53:29;;;;;;;0.50;0.50;;;14.10;99.90;;;;;;5000606;28;20204;-80
2021/09/04 05:55:56;;;;;;;0.50;0.32;;;14.10;99.90;;;;;;4997288;28;20511;-80
2021/09/04 05:58:24;;;;;;;0.80;0.73;;;14.10;99.90;;;;;;4999401;28;20206;-81
2021/09/04 06:00:53;;;;;;;5.23;1.73;;;14.10;99.90;;;;;;4999892;28;20460;-80
2021/09/04 06:03:19;;;;;;;0.50;0.40;;;14.20;99.90;;;;;;4999463;28;20484;-80
2021/09/04 06:05:46;;;;;;;0.50;0.40;;;14.10;99.90;;;;;;4998190;28;20725;-80
2021/09/04 06:08:13;;;;;;;0.50;0.40;;;14.10;99.90;;;;;;4999533;28;20813;-80
2021/09/04 06:10:40;;;;;;;1.03;0.93;;;14.00;99.90;;;;;;4998589;28;20457;-80
2021/09/04 06:13:07;;;;;;;0.50;0.40;;;14.00;99.90;;;;;;4999738;28;20793;-81
2021/09/04 06:15:34;;;;;;;3.00;2.05;;;14.00;99.90;;;;;;4999873;28;20444;-80
2021/09/04 06:18:03;;;;;;;0.80;0.50;;;13.90;99.90;;;;;;4999356;28;20211;-80
2021/09/04 06:20:29;;;;;;;1.77;1.67;;;13.80;99.90;;;;;;4998188;28;20920;-80
2021/09/04 06:22:56;;;;;;;0.60;0.43;;;13.80;99.90;;;;;;4998933;28;20444;-80
2021/09/04 06:25:23;;;;;;;0.50;0.40;;;13.80;99.90;;;;;;4999297;28;20234;-80
2021/09/04 06:27:50;;;;;;;0.50;0.40;;;13.80;99.90;;;;;;4999063;28;20224;-81
2021/09/04 06:30:17;;;;;;;0.50;0.30;;;13.80;99.90;;;;;;4999088;28;21061;-79
2021/09/04 06:32:43;;;;;;;0.50;0.40;;;13.80;99.90;;;;;;4998838;28;20446;-80
2021/09/04 06:35:12;;;;;;;0.50;0.30;;;13.70;99.90;;;;;;4998888;28;20440;-81
2021/09/04 06:37:39;;;;;;;0.50;0.40;;;13.80;99.90;;;;;;4999009;28;20473;-80
2021/09/04 06:40:07;;;;;;;4.37;1.60;;;13.90;99.90;;;;;;4998765;28;20467;-81
2021/09/04 06:42:34;;;;;;;1.80;1.70;;;14.00;99.90;;;;;;4998948;28;20451;-81
2021/09/04 06:45:01;;;;;;;0.50;0.40;;;14.00;99.90;;;;;;4998771;28;20255;-80
2021/09/04 06:47:28;;;;;;;0.50;0.40;;;14.00;99.90;;;;;;4998015;28;20443;-80
2021/09/04 06:49:54;;;;;;;0.82;0.80;;;14.10;99.90;;;;;;4998166;28;20219;-80
2021/09/04 06:52:23;;;;;;;0.50;0.32;;;14.10;99.90;;;;;;4999021;28;20204;-78
2021/09/04 06:54:49;;;;;;;0.50;0.50;;;14.10;99.90;;;;;;4995824;28;20203;-81
2021/09/04 06:57:16;;;;;;;0.60;0.60;;;14.10;99.90;;;;;;5006287;28;20818;-80
2021/09/04 06:59:43;;;;;;;0.50;0.50;;;14.20;99.90;;;;;;4998283;28;20460;-80
2021/09/04 07:02:10;;;;;;;0.80;0.70;;;14.20;99.90;;;;;;4998086;28;20444;-80
2021/09/04 07:04:36;;;;;;;1.63;1.63;;;14.10;99.90;;;;;;4997328;28;20480;-80
2021/09/04 07:07:04;;;;;;;0.50;0.40;;;14.00;99.90;;;;;;4998309;28;20201;-81
2021/09/04 07:09:33;;;;;;;2.15;1.45;;;13.90;99.90;;;;;;4998472;28;20468;-80
2021/09/04 07:12:00;;;;;;;0.55;0.52;;;13.90;99.90;;;;;;4999054;28;20205;-82
2021/09/04 07:14:27;;;;;;;0.98;0.98;;;13.80;99.90;;;;;;4999083;28;20217;-81
2021/09/04 07:16:54;;;;;;;0.60;0.60;;;13.70;99.90;;;;;;4999729;28;20681;-81
2021/09/04 07:19:21;;;;;;;1.02;1.02;;;13.70;99.90;;;;;;5000986;28;20285;-81
2021/09/04 07:21:47;;;;;;;0.50;0.50;;;13.70;99.90;;;;;;4998470;28;20197;-80
2021/09/04 07:24:14;;;;;;;0.70;0.67;;;13.70;99.90;;;;;;4998782;28;20204;-80
2021/09/04 07:26:42;;;;;;;1.58;1.50;;;13.70;99.90;;;;;;4999218;28;20488;-81
2021/09/04 07:29:09;;;;;;;0.50;0.40;;;13.70;99.90;;;;;;4997838;28;20197;-81
2021/09/04 07:31:36;;;;;;;0.50;0.40;;;13.80;99.90;;;;;;4997571;28;20544;-81
2021/09/04 07:34:03;;;;;;;0.80;0.80;;;13.90;99.90;;;;;;5000116;28;20450;-81
2021/09/04 07:36:29;;;;;;;0.50;0.40;;;13.90;99.90;;;;;;4998750;28;20197;-83
2021/09/04 07:38:56;;;;;;;0.50;0.40;;;14.00;99.90;;;;;;4999616;28;20201;-80
2021/09/04 07:41:23;;;;;;;0.50;0.40;;;14.00;99.90;;;;;;4996789;28;20232;-80
2021/09/04 07:43:51;;;;;;;0.50;0.40;;;14.00;99.90;;;;;;4998203;28;20207;-79
2021/09/04 07:46:18;;;;;;;0.50;0.40;;;14.20;99.90;;;;;;4995420;28;20719;-81
2021/09/04 07:48:45;;;;;;;0.50;0.40;;;14.20;99.90;;;;;;4995625;28;20456;-80
2021/09/04 07:51:12;;;;;;;0.50;0.30;;;14.30;99.90;;;;;;4994773;28;20474;-81
2021/09/04 07:53:38;;;;;;;0.50;0.40;;;14.30;99.90;;;;;;4994390;28;20454;-81
2021/09/04 07:56:05;;;;;;;0.50;0.40;;;14.30;99.90;;;;;;5002764;28;20526;-80
2021/09/04 07:58:32;;;;;;;0.50;0.40;;;14.30;99.90;;;;;;4995392;28;20197;-80
2021/09/04 08:01:00;;;;;;;1.37;0.93;;;14.50;99.90;;;;;;4995539;28;21008;-80
2021/09/04 08:03:27;;;;;;;0.50;0.33;;;14.50;99.90;;;;;;4995632;28;20950;-80
2021/09/04 08:05:54;;;;;;;0.60;0.40;;;14.40;99.90;;;;;;4995627;28;20472;-81
2021/09/04 08:08:21;;;;;;;1.13;1.13;;;14.40;99.90;;;;;;4995516;28;20451;-80
2021/09/04 08:10:47;;;;;;;1.07;1.07;;;14.60;99.90;;;;;;4996636;28;20478;-82
2021/09/04 08:13:14;;;;;;;4.10;3.10;;;14.70;99.90;;;;;;5000709;28;20444;-79
2021/09/04 08:15:41;;;;;;;0.50;0.40;;;14.90;99.90;;;;;;5000328;28;20842;-79
2021/09/04 08:18:09;;;;;;;0.50;0.40;;;14.90;99.90;;;;;;4999828;28;20502;-80
2021/09/04 08:20:36;;;;;;;2.23;1.37;;;15.00;99.90;;;;;;4999897;28;20463;-80
2021/09/04 08:23:07;;;;;;;1.93;1.83;;;14.90;99.90;;;;;;4999790;28;20444;-81
2021/09/04 08:25:34;;;;;;;0.57;0.50;;;14.90;99.90;;;;;;4999679;28;20919;-80
2021/09/04 08:28:01;;;;;;;0.50;0.40;;;15.00;99.90;;;;;;5000580;28;20443;-80
2021/09/04 08:30:27;;;;;;;16.03;2.73;;;15.00;99.90;;;;;;4999538;28;20220;-80
2021/09/04 08:32:54;;;;;;;1.08;1.00;;;15.00;99.90;;;;;;5000612;28;20443;-80
2021/09/04 08:35:22;;;;;;;3.30;0.70;;;14.90;99.90;;;;;;4999862;28;20196;-81
2021/09/04 08:37:52;;;;;;;0.77;0.73;;;14.80;99.90;;;;;;4999696;28;20440;-80
2021/09/04 08:40:20;;;;;;;1.50;1.03;;;14.70;99.90;;;;;;4998422;28;20895;-80
2021/09/04 08:42:46;;;;;;;2.50;1.00;;;14.80;99.90;;;;;;4999043;28;20463;-80
2021/09/04 08:45:14;;;;;;;1.03;0.93;;;14.80;99.90;;;;;;5000116;28;20487;-79
2021/09/04 08:47:41;;;;;;;1.33;1.25;;;14.80;99.90;;;;;;5000140;28;20820;-81
2021/09/04 08:50:08;;;;;;;1.83;1.73;;;14.80;99.90;;;;;;4999467;28;20217;-81
2021/09/04 08:52:37;;;;;;;1.90;1.77;;;14.90;99.90;;;;;;4999794;28;20527;-81
2021/09/04 08:55:05;;;;;;;0.50;0.40;;;14.90;99.90;;;;;;5003020;28;21190;-81
2021/09/04 08:57:32;;;;;;;1.00;1.00;;;15.00;99.90;;;;;;4996914;28;20514;-81
2021/09/04 09:00:01;;;;;;;1.43;1.33;;;15.10;99.90;;;;;;4998457;28;20464;-81
2021/09/04 09:02:28;;;;;;;1.17;0.73;;;15.30;99.90;;;;;;4997936;28;20444;-82
2021/09/04 09:05:01;;;;;;;21.77;4.17;;;15.50;99.90;;;;;;4998891;28;20446;-80
2021/09/04 09:07:44;;;;;;;1.23;1.23;;;15.50;99.90;;;;;;4998750;28;20445;-81
2021/09/04 09:10:33;;;;;;;0.53;0.40;;;15.60;99.90;;;;;;5007190;28;20478;-81
2021/09/04 09:13:00;;;;;;;1.03;0.70;;;15.70;99.90;;;;;;5016622;28;20443;-81
2021/09/04 09:15:28;;;;;;;1.73;1.63;;;15.80;99.90;;;;;;5018561;28;20951;-81
2021/09/04 09:18:00;;;;;;;5.60;2.67;;;16.00;99.90;;;;;;5018191;28;20445;-81
2021/09/04 09:20:27;;;;;;;0.60;0.60;;;16.20;99.90;;;;;;5019236;28;21017;-81
2021/09/04 09:23:04;;;;;;;2.67;2.03;;;16.10;99.90;;;;;;5017588;28;20439;-82
2021/09/04 09:25:33;;;;;;;4.73;0.83;;;16.00;99.90;;;;;;5018946;28;20466;-81
2021/09/04 09:28:05;;;;;;;2.93;1.23;;;16.00;99.90;;;;;;5018578;28;20479;-81
2021/09/04 09:30:33;;;;;;;3.80;3.70;;;16.10;99.90;;;;;;5019060;28;20494;-81
2021/09/04 09:33:00;;;;;;;7.37;1.27;;;16.10;99.90;;;;;;5027508;22;21002;-88
2021/09/04 09:35:32;;;;;;;1.23;1.23;;;16.10;99.90;;;;;;5017938;28;20547;-85
2021/09/04 09:38:02;;;;;;;3.90;2.33;;;16.00;99.90;;;;;;5026560;28;20508;-87
2021/09/04 09:40:29;;;;;;;4.50;0.97;;;16.10;99.90;;;;;;5051035;28;20709;-86
2021/09/04 09:42:56;;;;;;;1.80;0.97;;;16.10;99.90;;;;;;5038981;28;20460;-86
2021/09/04 09:45:39;;;;;;;5.30;4.83;;;16.00;99.90;;;;;;5031073;28;20432;-83
2021/09/04 09:48:06;;;;;;;0.60;0.50;;;16.00;99.90;;;;;;5028866;28;20439;-86
2021/09/04 09:50:35;;;;;;;4.77;3.23;;;15.90;99.90;;;;;;5029893;28;20435;-87
2021/09/04 09:53:05;;;;;;;0.60;0.37;;;16.10;99.90;;;;;;5031154;28;20455;-87
2021/09/04 09:55:32;;;;;;;0.50;0.40;;;16.20;99.90;;;;;;5019872;28;20439;-86
2021/09/04 09:57:59;;;;;;;0.50;0.40;;;16.50;99.90;;;;;;5013946;28;20492;-86
2021/09/04 10:00:27;;;;;;;1.47;1.37;;;16.80;99.90;;;;;;5012776;28;20500;-86
2021/09/04 10:02:57;;;;;;;1.23;1.13;;;17.00;99.90;;;;;;5008798;28;20471;-85
2021/09/04 10:05:27;;;;;;;0.67;0.67;;;17.20;99.90;;;;;;5000855;28;20508;-87
2021/09/04 10:07:54;;;;;;;0.50;0.30;;;17.10;99.90;;;;;;5013429;28;20444;-88
2021/09/04 10:10:23;;;;;;;0.60;0.57;;;17.00;99.90;;;;;;5005683;28;20499;-87
2021/09/04 10:12:50;;;;;;;2.73;2.63;;;17.20;99.90;;;;;;5006075;28;20445;-84
2021/09/04 10:15:18;;;;;;;3.07;2.93;;;17.20;99.90;;;;;;5001399;28;20449;-86
2021/09/04 10:17:46;;;;;;;0.50;0.30;;;17.30;99.90;;;;;;5005549;28;20444;-88
2021/09/04 10:20:15;;;;;;;5.20;4.10;;;17.40;99.90;;;;;;5007116;28;20445;-87
2021/09/04 10:22:43;;;;;;;1.80;1.70;;;17.40;99.90;;;;;;5016314;28;20536;-86
2021/09/04 10:25:15;;;;;;;0.50;0.30;;;17.40;99.90;;;;;;5009471;28;20450;-87
2021/09/04 10:27:45;;;;;;;0.50;0.30;;;17.60;99.90;;;;;;5009262;28;20425;-86
2021/09/04 10:30:29;;;;;;;3.10;1.70;;;17.70;99.90;;;;;;5010427;28;20429;-86
2021/09/04 10:33:02;;;;;;;0.50;0.37;;;17.60;99.90;;;;;;5009043;28;20457;-88
2021/09/04 10:35:43;;;;;;;0.50;0.40;;;17.60;99.90;;;;;;5012264;28;20958;-86
2021/09/04 10:38:22;;;;;;;0.87;0.40;;;17.40;99.90;;;;;;5011815;28;20507;-87
2021/09/04 10:40:51;;;;;;;0.60;0.60;;;17.50;99.90;;;;;;5010489;28;20942;-86
2021/09/04 10:43:20;;;;;;;0.50;0.30;;;17.60;99.90;;;;;;5010320;28;20472;-87
2021/09/04 10:45:49;;;;;;;2.50;2.10;;;17.90;99.90;;;;;;5009762;28;20480;-88
2021/09/04 10:48:18;;;;;;;3.77;2.40;;;17.90;99.90;;;;;;5008611;28;20447;-85
2021/09/04 10:51:02;;;;;;;0.50;0.30;;;18.00;99.90;;;;;;5006684;28;20432;-86
2021/09/04 10:53:43;;;;;;;1.67;1.57;;;18.00;99.90;;;;;;4991978;28;20444;-86
2021/09/04 10:56:22;;;;;;;1.80;1.70;;;18.20;99.90;;;;;;4990850;28;21290;-87
2021/09/04 10:58:51;;;;;;;6.73;2.30;;;18.40;99.90;;;;;;4996963;28;20493;-86
2021/09/04 11:01:25;;;;;;;2.87;2.77;;;18.60;99.90;;;;;;5009365;28;20498;-87
2021/09/04 11:03:54;;;;;;;2.03;1.83;;;18.40;99.90;;;;;;5008485;28;20491;-86
2021/09/04 11:06:22;;;;;;;8.13;2.20;;;18.20;99.90;;;;;;5009289;28;20482;-85
2021/09/04 11:08:49;;;;;;;3.07;2.87;;;17.90;99.90;;;;;;5008594;28;20443;-87
2021/09/04 11:11:27;;;;;;;0.50;0.40;;;17.90;99.90;;;;;;5008935;28;20432;-87
2021/09/04 11:13:56;;;;;;;0.50;0.30;;;18.10;99.90;;;;;;5009785;28;20477;-86
2021/09/04 11:16:47;;;;;;;1.13;0.97;;;18.50;99.90;;;;;;5008729;28;20441;-84
2021/09/04 11:19:16;;;;;;;0.70;0.70;;;18.80;99.90;;;;;;5009053;28;20430;-87
2021/09/04 11:22:06;;;;;;;1.50;0.77;;;19.10;99.90;;;;;;5008933;28;20507;-86
2021/09/04 11:24:35;;;;;;;1.00;0.83;;;19.20;99.90;;;;;;4994881;28;20492;-87
2021/09/04 11:27:08;;;;;;;1.73;1.63;;;19.30;99.90;;;;;;4996168;28;20506;-86
2021/09/04 11:29:41;;;;;;;3.20;3.03;;;19.50;99.90;;;;;;4996669;28;20446;-87
2021/09/04 11:32:09;;;;;;;0.50;0.37;;;19.90;99.90;;;;;;5002670;28;20446;-87
2021/09/04 11:34:46;;;;;;;4.50;2.90;;;19.80;99.90;;;;;;5007433;28;20462;-88
2021/09/04 11:37:18;;;;;;;1.87;1.77;;;19.70;99.90;;;;;;5003270;28;20441;-88
2021/09/04 11:39:45;;;;;;;7.23;4.83;;;19.70;99.90;;;;;;5002913;28;20456;-87
2021/09/04 11:42:15;;;;;;;3.30;1.57;;;19.30;99.90;;;;;;5003206;28;20957;-88
2021/09/04 11:44:48;;;;;;;3.80;2.30;;;19.30;99.90;;;;;;5001907;28;20478;-88
2021/09/04 11:47:15;;;;;;;11.43;2.87;;;19.30;99.90;;;;;;5002024;28;20487;-88
2021/09/04 11:49:43;;;;;;;28.63;14.53;;;19.20;99.90;;;;;;5002829;28;20506;-87
2021/09/04 11:52:20;;;;;;;0.50;0.40;;;19.40;99.90;;;;;;5003356;28;20448;-87
2021/09/04 11:54:47;;;;;;;1.73;1.63;;;19.70;99.90;;;;;;5003013;28;20451;-88
2021/09/04 11:57:27;;;;;;;0.93;0.83;;;19.90;99.90;;;;;;5001908;28;20448;-87
2021/09/04 12:00:05;;;;;;;0.50;0.30;;;20.00;99.90;;;;;;5002161;28;20469;-87
2021/09/04 12:02:32;;;;;;;1.47;1.37;;;20.10;99.90;;;;;;4995046;28;20467;-87
2021/09/04 12:05:03;;;;;;;0.50;0.30;;;20.30;99.90;;;;;;5003107;28;20453;-87
2021/09/04 12:07:31;;;;;;;0.50;0.30;;;20.60;99.90;;;;;;5001602;28;20479;-86
2021/09/04 12:09:59;;;;;;;0.50;0.30;;;20.50;99.90;;;;;;5002230;28;20448;-87
2021/09/04 12:12:27;;;;;;;0.50;0.30;;;20.60;99.90;;;;;;5001578;28;20455;-87
2021/09/04 12:14:55;;;;;;;0.50;0.40;;;20.80;99.90;;;;;;5001490;28;20439;-88
2021/09/04 12:17:24;;;;;;;0.50;0.40;;;20.80;99.90;;;;;;5003630;28;20436;-87
2021/09/04 12:19:52;;;;;;;0.50;0.50;;;21.00;99.90;;;;;;5019569;28;20443;-87
2021/09/04 12:22:19;;;;;;;3.43;2.57;;;20.90;99.90;;;;;;5022318;28;20498;-87
2021/09/04 12:24:46;;;;;;;2.63;2.43;;;20.70;99.90;;;;;;5020644;28;20452;-87
2021/09/04 12:27:13;;;;;;;4.00;3.70;;;20.50;99.90;;;;;;5021978;28;20482;-87
2021/09/04 12:29:39;;;;;;;0.50;0.40;;;20.30;99.90;;;;;;5022613;28;20507;-87
2021/09/04 12:32:09;;;;;;;2.00;1.90;;;20.00;99.90;;;;;;5022322;28;20450;-87
2021/09/04 12:34:38;;;;;;;0.70;0.70;;;19.80;99.90;;;;;;5016497;28;20533;-87
2021/09/04 12:37:24;;;;;;;7.47;6.73;;;19.70;99.90;;;;;;5023275;28;20438;-88
2021/09/04 12:39:51;;;;;;;0.50;0.30;;;19.60;99.90;;;;;;5017409;28;20430;-87
2021/09/04 12:42:18;;;;;;;0.50;0.50;;;19.70;99.90;;;;;;5022301;28;20445;-87
2021/09/04 12:44:47;;;;;;;2.93;0.73;;;19.90;99.90;;;;;;5012281;28;20440;-87
2021/09/04 12:47:15;;;;;;;1.67;1.57;;;20.30;99.90;;;;;;4996493;28;20467;-87
2021/09/04 12:49:53;;;;;;;3.03;2.50;;;20.50;99.90;;;;;;4996469;28;20816;-87